sensor_id;sensor_type;location;lat;lon;timestamp;temperature;humidity
11855;DHT22;5987;53.140;8.904;2022-08-19T00:02:43;18.30;99.90
11855;DHT22;5987;53.140;8.904;2022-08-19T00:05:51;18.30;99.90
11855;DHT22;5987;53.140;8.904;2022-08-19T00:08:58;18.30;99.90
11855;DHT22;5987;53.140;8.904;2022-08-19T00:12:03;18.40;99.90
11855;DHT22;5987;53.140;8.904;2022-08-19T00:15:10;18.40;99.90
11855;DHT22;5987;53.140;8.904;2022-08-19T00:18:16;18.50;99.90
11855;DHT22;5987;53.140;8.904;2022-08-19T00:21:20;18.50;99.90
11855;DHT22;5987;53.140;8.904;2022-08-19T00:24:25;18.50;99.90
11855;DHT22;5987;53.140;8.904;2022-08-19T00:27:30;18.60;99.90
11855;DHT22;5987;53.140;8.904;2022-08-19T00:30:34;18.60;99.90
11855;DHT22;5987;53.140;8.904;2022-08-19T00:33:38;18.60;99.90
11855;DHT22;5987;53.140;8.904;2022-08-19T00:36:42;18.70;99.90
11855;DHT22;5987;53.140;8.904;2022-08-19T00:39:48;18.70;99.90
11855;DHT22;5987;53.140;8.904;2022-08-19T00:42:52;18.80;99.90
11855;DHT22;5987;53.140;8.904;2022-08-19T00:45:56;18.80;99.90
11855;DHT22;5987;53.140;8.904;2022-08-19T00:49:01;18.90;99.90
11855;DHT22;5987;53.140;8.904;2022-08-19T00:52:13;18.90;99.90
11855;DHT22;5987;53.140;8.904;2022-08-19T00:55:24;18.90;99.90
11855;DHT22;5987;53.140;8.904;2022-08-19T00:58:33;19.00;99.90
11855;DHT22;5987;53.140;8.904;2022-08-19T01:01:40;19.00;99.90
11855;DHT22;5987;53.140;8.904;2022-08-19T01:04:46;19.00;99.90
11855;DHT22;5987;53.140;8.904;2022-08-19T01:07:50;19.00;99.90
11855;DHT22;5987;53.140;8.904;2022-08-19T01:10:58;19.00;99.90
11855;DHT22;5987;53.140;8.904;2022-08-19T01:14:03;19.00;99.90
11855;DHT22;5987;53.140;8.904;2022-08-19T01:17:10;19.00;99.90
11855;DHT22;5987;53.140;8.904;2022-08-19T01:20:17;18.90;99.90
11855;DHT22;5987;53.140;8.904;2022-08-19T01:23:24;18.90;99.90
11855;DHT22;5987;53.140;8.904;2022-08-19T01:26:45;18.90;99.90
11855;DHT22;5987;53.140;8.904;2022-08-19T01:29:49;18.80;99.90
11855;DHT22;5987;53.140;8.904;2022-08-19T01:32:54;18.70;99.90
11855;DHT22;5987;53.140;8.904;2022-08-19T01:36:04;18.70;99.90
11855;DHT22;5987;53.140;8.904;2022-08-19T01:39:14;18.70;99.90
11855;DHT22;5987;53.140;8.904;2022-08-19T01:42:20;18.70;99.90
11855;DHT22;5987;53.140;8.904;2022-08-19T01:45:32;18.70;99.90
11855;DHT22;5987;53.140;8.904;2022-08-19T01:48:40;18.70;99.90
11855;DHT22;5987;53.140;8.904;2022-08-19T01:51:46;18.70;99.90
11855;DHT22;5987;53.140;8.904;2022-08-19T01:54:52;18.70;99.90
11855;DHT22;5987;53.140;8.904;2022-08-19T01:57:59;18.70;99.90
11855;DHT22;5987;53.140;8.904;2022-08-19T02:01:06;18.70;99.90
11855;DHT22;5987;53.140;8.904;2022-08-19T02:04:11;18.70;99.90
11855;DHT22;5987;53.140;8.904;2022-08-19T02:07:14;18.80;99.90
11855;DHT22;5987;53.140;8.904;2022-08-19T02:10:22;18.80;99.90
11855;DHT22;5987;53.140;8.904;2022-08-19T02:13:26;18.80;99.90
11855;DHT22;5987;53.140;8.904;2022-08-19T02:16:30;18.90;99.90
11855;DHT22;5987;53.140;8.904;2022-08-19T02:19:36;18.80;99.90
11855;DHT22;5987;53.140;8.904;2022-08-19T02:22:42;18.80;99.90
11855;DHT22;5987;53.140;8.904;2022-08-19T02:25:48;18.80;99.90
11855;DHT22;5987;53.140;8.904;2022-08-19T02:28:52;18.70;99.90
11855;DHT22;5987;53.140;8.904;2022-08-19T02:31:57;18.70;99.90
11855;DHT22;5987;53.140;8.904;2022-08-19T02:35:01;18.70;99.90
11855;DHT22;5987;53.140;8.904;2022-08-19T02:38:13;18.80;99.90
11855;DHT22;5987;53.140;8.904;2022-08-19T02:41:32;18.80;99.90
11855;DHT22;5987;53.140;8.904;2022-08-19T02:44:37;18.70;99.90
11855;DHT22;5987;53.140;8.904;2022-08-19T02:47:41;18.60;99.90
11855;DHT22;5987;53.140;8.904;2022-08-19T02:50:45;18.70;99.90
11855;DHT22;5987;53.140;8.904;2022-08-19T02:53:54;18.60;99.90
11855;DHT22;5987;53.140;8.904;2022-08-19T02:57:00;18.60;99.90
11855;DHT22;5987;53.140;8.904;2022-08-19T03:00:05;18.60;99.90
11855;DHT22;5987;53.140;8.904;2022-08-19T03:03:10;18.60;99.90
11855;DHT22;5987;53.140;8.904;2022-08-19T03:06:15;18.60;99.90
11855;DHT22;5987;53.140;8.904;2022-08-19T03:09:20;18.60;99.90
11855;DHT22;5987;53.140;8.904;2022-08-19T03:12:25;18.60;99.90
11855;DHT22;5987;53.140;8.904;2022-08-19T03:15:28;18.60;99.90
11855;DHT22;5987;53.140;8.904;2022-08-19T03:18:32;18.60;99.90
11855;DHT22;5987;53.140;8.904;2022-08-19T03:21:36;18.60;99.90
11855;DHT22;5987;53.140;8.904;2022-08-19T03:24:40;18.60;99.90
11855;DHT22;5987;53.140;8.904;2022-08-19T03:27:45;18.70;99.90
11855;DHT22;5987;53.140;8.904;2022-08-19T03:30:58;18.70;99.90
11855;DHT22;5987;53.140;8.904;2022-08-19T03:34:04;18.70;99.90
11855;DHT22;5987;53.140;8.904;2022-08-19T03:37:11;18.70;99.90
11855;DHT22;5987;53.140;8.904;2022-08-19T03:40:15;18.80;99.90
11855;DHT22;5987;53.140;8.904;2022-08-19T03:43:22;18.80;99.90
11855;DHT22;5987;53.140;8.904;2022-08-19T03:46:27;18.70;99.90
11855;DHT22;5987;53.140;8.904;2022-08-19T03:49:32;18.70;99.90
11855;DHT22;5987;53.140;8.904;2022-08-19T03:52:37;18.70;99.90
11855;DHT22;5987;53.140;8.904;2022-08-19T03:55:46;18.70;99.90
11855;DHT22;5987;53.140;8.904;2022-08-19T03:58:51;18.70;99.90
11855;DHT22;5987;53.140;8.904;2022-08-19T04:01:57;18.80;99.90
11855;DHT22;5987;53.140;8.904;2022-08-19T04:05:02;18.70;99.90
11855;DHT22;5987;53.140;8.904;2022-08-19T04:08:07;18.80;99.90
11855;DHT22;5987;53.140;8.904;2022-08-19T04:11:17;18.80;99.90
11855;DHT22;5987;53.140;8.904;2022-08-19T04:14:44;18.80;99.90
11855;DHT22;5987;53.140;8.904;2022-08-19T04:17:48;18.70;99.90
11855;DHT22;5987;53.140;8.904;2022-08-19T04:20:52;18.60;99.90
11855;DHT22;5987;53.140;8.904;2022-08-19T04:23:56;18.70;99.90
11855;DHT22;5987;53.140;8.904;2022-08-19T04:27:01;18.70;99.90
11855;DHT22;5987;53.140;8.904;2022-08-19T04:30:08;18.70;99.90
11855;DHT22;5987;53.140;8.904;2022-08-19T04:33:14;18.70;99.90
11855;DHT22;5987;53.140;8.904;2022-08-19T04:36:31;18.70;99.90
11855;DHT22;5987;53.140;8.904;2022-08-19T04:39:37;18.80;99.90
11855;DHT22;5987;53.140;8.904;2022-08-19T04:43:03;18.80;99.90
11855;DHT22;5987;53.140;8.904;2022-08-19T04:46:10;18.80;99.90
11855;DHT22;5987;53.140;8.904;2022-08-19T04:49:35;18.80;99.90
11855;DHT22;5987;53.140;8.904;2022-08-19T04:52:39;18.70;99.90
11855;DHT22;5987;53.140;8.904;2022-08-19T04:55:45;18.70;99.90
11855;DHT22;5987;53.140;8.904;2022-08-19T04:58:49;18.70;99.90
11855;DHT22;5987;53.140;8.904;2022-08-19T05:01:55;18.70;99.90
11855;DHT22;5987;53.140;8.904;2022-08-19T05:04:59;18.70;99.90
11855;DHT22;5987;53.140;8.904;2022-08-19T05:08:03;18.80;99.90
11855;DHT22;5987;53.140;8.904;2022-08-19T05:11:10;18.80;99.90
11855;DHT22;5987;53.140;8.904;2022-08-19T05:14:15;18.70;99.90
11855;DHT22;5987;53.140;8.904;2022-08-19T05:17:20;18.60;99.90
11855;DHT22;5987;53.140;8.904;2022-08-19T05:20:29;18.70;99.90
11855;DHT22;5987;53.140;8.904;2022-08-19T05:23:51;18.70;99.90
11855;DHT22;5987;53.140;8.904;2022-08-19T05:26:55;18.60;99.90
11855;DHT22;5987;53.140;8.904;2022-08-19T05:30:00;18.70;99.90
11855;DHT22;5987;53.140;8.904;2022-08-19T05:33:05;18.60;99.90
11855;DHT22;5987;53.140;8.904;2022-08-19T05:36:11;18.70;99.90
11855;DHT22;5987;53.140;8.904;2022-08-19T05:39:17;18.60;99.90
11855;DHT22;5987;53.140;8.904;2022-08-19T05:42:22;18.50;99.90
11855;DHT22;5987;53.140;8.904;2022-08-19T05:45:27;18.50;99.90
11855;DHT22;5987;53.140;8.904;2022-08-19T05:48:32;18.60;99.90
11855;DHT22;5987;53.140;8.904;2022-08-19T05:51:36;18.70;99.90
11855;DHT22;5987;53.140;8.904;2022-08-19T05:54:41;18.80;99.90
11855;DHT22;5987;53.140;8.904;2022-08-19T05:57:45;18.70;99.90
11855;DHT22;5987;53.140;8.904;2022-08-19T06:00:49;18.60;99.90
11855;DHT22;5987;53.140;8.904;2022-08-19T06:03:55;18.60;99.90
11855;DHT22;5987;53.140;8.904;2022-08-19T06:06:59;18.70;99.90
11855;DHT22;5987;53.140;8.904;2022-08-19T06:10:14;18.80;99.90
11855;DHT22;5987;53.140;8.904;2022-08-19T06:13:18;19.00;99.90
11855;DHT22;5987;53.140;8.904;2022-08-19T06:16:22;19.30;99.90
11855;DHT22;5987;53.140;8.904;2022-08-19T06:19:29;19.70;99.90
11855;DHT22;5987;53.140;8.904;2022-08-19T06:22:37;19.90;99.90
11855;DHT22;5987;53.140;8.904;2022-08-19T06:25:42;19.80;99.90
11855;DHT22;5987;53.140;8.904;2022-08-19T06:28:47;19.90;99.90
11855;DHT22;5987;53.140;8.904;2022-08-19T06:31:55;19.90;99.90
11855;DHT22;5987;53.140;8.904;2022-08-19T06:35:01;19.90;99.90
11855;DHT22;5987;53.140;8.904;2022-08-19T06:38:05;19.90;99.90
11855;DHT22;5987;53.140;8.904;2022-08-19T06:41:09;20.10;99.90
11855;DHT22;5987;53.140;8.904;2022-08-19T06:44:14;20.20;99.90
11855;DHT22;5987;53.140;8.904;2022-08-19T06:47:19;20.30;99.90
11855;DHT22;5987;53.140;8.904;2022-08-19T06:50:31;20.10;99.90
11855;DHT22;5987;53.140;8.904;2022-08-19T06:53:37;20.30;99.90
11855;DHT22;5987;53.140;8.904;2022-08-19T06:56:43;20.30;99.90
11855;DHT22;5987;53.140;8.904;2022-08-19T06:59:47;20.30;99.90
11855;DHT22;5987;53.140;8.904;2022-08-19T07:02:51;20.50;99.90
11855;DHT22;5987;53.140;8.904;2022-08-19T07:06:05;20.60;99.90
11855;DHT22;5987;53.140;8.904;2022-08-19T07:09:22;20.20;99.90
11855;DHT22;5987;53.140;8.904;2022-08-19T07:12:27;20.20;99.90
11855;DHT22;5987;53.140;8.904;2022-08-19T07:15:32;20.30;99.90
11855;DHT22;5987;53.140;8.904;2022-08-19T07:18:37;20.50;99.90
11855;DHT22;5987;53.140;8.904;2022-08-19T07:21:47;20.50;99.90
11855;DHT22;5987;53.140;8.904;2022-08-19T07:24:54;20.60;99.90
11855;DHT22;5987;53.140;8.904;2022-08-19T07:27:58;20.60;99.90
11855;DHT22;5987;53.140;8.904;2022-08-19T07:31:02;20.70;99.90
11855;DHT22;5987;53.140;8.904;2022-08-19T07:34:08;20.60;99.90
11855;DHT22;5987;53.140;8.904;2022-08-19T07:37:15;20.80;99.90
11855;DHT22;5987;53.140;8.904;2022-08-19T07:40:19;20.90;99.90
11855;DHT22;5987;53.140;8.904;2022-08-19T07:43:23;21.10;99.90
11855;DHT22;5987;53.140;8.904;2022-08-19T07:46:38;21.20;99.90
11855;DHT22;5987;53.140;8.904;2022-08-19T07:49:50;21.30;99.90
11855;DHT22;5987;53.140;8.904;2022-08-19T07:52:55;21.30;99.90
11855;DHT22;5987;53.140;8.904;2022-08-19T07:55:59;21.40;99.90
11855;DHT22;5987;53.140;8.904;2022-08-19T07:59:06;21.30;99.90
11855;DHT22;5987;53.140;8.904;2022-08-19T08:02:11;21.40;99.90
11855;DHT22;5987;53.140;8.904;2022-08-19T08:05:14;21.70;99.90
11855;DHT22;5987;53.140;8.904;2022-08-19T08:08:38;21.50;99.90
11855;DHT22;5987;53.140;8.904;2022-08-19T08:12:03;21.50;99.90
11855;DHT22;5987;53.140;8.904;2022-08-19T08:15:43;21.80;99.90
11855;DHT22;5987;53.140;8.904;2022-08-19T08:18:47;21.80;99.90
11855;DHT22;5987;53.140;8.904;2022-08-19T08:21:55;21.90;99.90
11855;DHT22;5987;53.140;8.904;2022-08-19T08:25:04;22.10;99.90
11855;DHT22;5987;53.140;8.904;2022-08-19T08:28:10;22.60;99.90
11855;DHT22;5987;53.140;8.904;2022-08-19T08:31:18;22.60;99.90
11855;DHT22;5987;53.140;8.904;2022-08-19T08:34:23;23.10;99.90
11855;DHT22;5987;53.140;8.904;2022-08-19T08:37:27;23.60;99.90
11855;DHT22;5987;53.140;8.904;2022-08-19T08:40:39;23.80;99.90
11855;DHT22;5987;53.140;8.904;2022-08-19T08:43:49;24.00;99.90
11855;DHT22;5987;53.140;8.904;2022-08-19T08:46:59;23.70;99.90
11855;DHT22;5987;53.140;8.904;2022-08-19T08:50:12;24.00;99.90
11855;DHT22;5987;53.140;8.904;2022-08-19T08:53:21;24.00;99.90
11855;DHT22;5987;53.140;8.904;2022-08-19T08:56:34;23.80;99.90
11855;DHT22;5987;53.140;8.904;2022-08-19T08:59:40;23.80;99.90
11855;DHT22;5987;53.140;8.904;2022-08-19T09:02:46;24.20;99.90
11855;DHT22;5987;53.140;8.904;2022-08-19T09:05:59;24.10;99.90
11855;DHT22;5987;53.140;8.904;2022-08-19T09:09:12;24.40;99.90
11855;DHT22;5987;53.140;8.904;2022-08-19T09:12:25;24.20;99.90
11855;DHT22;5987;53.140;8.904;2022-08-19T09:15:40;24.20;99.90
11855;DHT22;5987;53.140;8.904;2022-08-19T09:18:50;24.20;99.90
11855;DHT22;5987;53.140;8.904;2022-08-19T09:21:56;23.80;99.90
11855;DHT22;5987;53.140;8.904;2022-08-19T09:25:02;23.90;99.90
11855;DHT22;5987;53.140;8.904;2022-08-19T09:28:09;24.10;99.90
11855;DHT22;5987;53.140;8.904;2022-08-19T09:31:25;24.60;99.90
11855;DHT22;5987;53.140;8.904;2022-08-19T09:34:32;24.80;99.90
11855;DHT22;5987;53.140;8.904;2022-08-19T09:37:44;25.10;99.90
11855;DHT22;5987;53.140;8.904;2022-08-19T09:40:48;25.00;99.90
11855;DHT22;5987;53.140;8.904;2022-08-19T09:43:55;25.00;99.90
11855;DHT22;5987;53.140;8.904;2022-08-19T09:46:59;24.60;99.90
11855;DHT22;5987;53.140;8.904;2022-08-19T09:50:04;24.40;99.90
11855;DHT22;5987;53.140;8.904;2022-08-19T09:53:09;24.50;99.90
11855;DHT22;5987;53.140;8.904;2022-08-19T09:56:14;24.50;99.90
11855;DHT22;5987;53.140;8.904;2022-08-19T09:59:21;24.60;99.90
11855;DHT22;5987;53.140;8.904;2022-08-19T10:02:25;24.80;99.90
11855;DHT22;5987;53.140;8.904;2022-08-19T10:05:30;24.60;99.90
11855;DHT22;5987;53.140;8.904;2022-08-19T10:08:56;24.70;99.90
11855;DHT22;5987;53.140;8.904;2022-08-19T10:12:01;24.50;99.90
11855;DHT22;5987;53.140;8.904;2022-08-19T10:15:09;24.50;99.90
11855;DHT22;5987;53.140;8.904;2022-08-19T10:18:15;24.40;99.90
11855;DHT22;5987;53.140;8.904;2022-08-19T10:21:22;24.50;99.90
11855;DHT22;5987;53.140;8.904;2022-08-19T10:24:28;24.60;99.90
11855;DHT22;5987;53.140;8.904;2022-08-19T10:27:33;24.40;99.70
11855;DHT22;5987;53.140;8.904;2022-08-19T10:30:39;24.20;99.90
11855;DHT22;5987;53.140;8.904;2022-08-19T10:33:44;24.40;98.90
11855;DHT22;5987;53.140;8.904;2022-08-19T10:36:55;24.30;99.90
11855;DHT22;5987;53.140;8.904;2022-08-19T10:40:04;24.40;99.90
11855;DHT22;5987;53.140;8.904;2022-08-19T10:43:09;24.50;99.90
11855;DHT22;5987;53.140;8.904;2022-08-19T10:46:15;24.40;99.30
11855;DHT22;5987;53.140;8.904;2022-08-19T10:49:19;24.50;99.10
11855;DHT22;5987;53.140;8.904;2022-08-19T10:52:24;24.70;98.20
11855;DHT22;5987;53.140;8.904;2022-08-19T10:55:40;24.50;98.20
11855;DHT22;5987;53.140;8.904;2022-08-19T10:59:12;24.60;98.80
11855;DHT22;5987;53.140;8.904;2022-08-19T11:02:18;24.60;98.40
11855;DHT22;5987;53.140;8.904;2022-08-19T11:05:21;24.50;98.10
11855;DHT22;5987;53.140;8.904;2022-08-19T11:08:25;24.70;97.40
11855;DHT22;5987;53.140;8.904;2022-08-19T11:11:29;24.60;98.00
11855;DHT22;5987;53.140;8.904;2022-08-19T11:14:39;24.60;96.90
11855;DHT22;5987;53.140;8.904;2022-08-19T11:17:44;24.80;96.70
11855;DHT22;5987;53.140;8.904;2022-08-19T11:20:47;24.60;96.80
11855;DHT22;5987;53.140;8.904;2022-08-19T11:23:53;24.80;97.50
11855;DHT22;5987;53.140;8.904;2022-08-19T11:27:02;24.90;97.40
11855;DHT22;5987;53.140;8.904;2022-08-19T11:30:09;24.90;97.00
11855;DHT22;5987;53.140;8.904;2022-08-19T11:33:15;24.90;97.10
11855;DHT22;5987;53.140;8.904;2022-08-19T11:36:21;24.80;96.50
11855;DHT22;5987;53.140;8.904;2022-08-19T11:39:27;25.00;96.00
11855;DHT22;5987;53.140;8.904;2022-08-19T11:42:32;25.00;95.20
11855;DHT22;5987;53.140;8.904;2022-08-19T11:45:54;25.00;95.10
11855;DHT22;5987;53.140;8.904;2022-08-19T11:49:00;25.00;95.90
11855;DHT22;5987;53.140;8.904;2022-08-19T11:52:05;25.10;94.90
11855;DHT22;5987;53.140;8.904;2022-08-19T11:55:09;25.10;94.30
11855;DHT22;5987;53.140;8.904;2022-08-19T11:58:15;25.40;94.50
11855;DHT22;5987;53.140;8.904;2022-08-19T12:01:21;25.70;93.20
11855;DHT22;5987;53.140;8.904;2022-08-19T12:04:28;25.70;92.80
11855;DHT22;5987;53.140;8.904;2022-08-19T12:07:32;25.60;92.30
11855;DHT22;5987;53.140;8.904;2022-08-19T12:10:39;25.70;92.20
11855;DHT22;5987;53.140;8.904;2022-08-19T12:13:44;25.70;90.60
11855;DHT22;5987;53.140;8.904;2022-08-19T12:16:48;25.70;90.90
11855;DHT22;5987;53.140;8.904;2022-08-19T12:19:55;25.90;90.60
11855;DHT22;5987;53.140;8.904;2022-08-19T12:22:59;26.00;90.20
11855;DHT22;5987;53.140;8.904;2022-08-19T12:26:05;26.10;88.90
11855;DHT22;5987;53.140;8.904;2022-08-19T12:29:09;26.20;88.90
11855;DHT22;5987;53.140;8.904;2022-08-19T12:32:13;26.20;88.60
11855;DHT22;5987;53.140;8.904;2022-08-19T12:35:20;26.30;87.70
11855;DHT22;5987;53.140;8.904;2022-08-19T12:38:24;26.20;86.90
11855;DHT22;5987;53.140;8.904;2022-08-19T12:41:30;26.30;86.70
11855;DHT22;5987;53.140;8.904;2022-08-19T12:44:34;26.40;87.30
11855;DHT22;5987;53.140;8.904;2022-08-19T12:47:41;26.40;84.50
11855;DHT22;5987;53.140;8.904;2022-08-19T12:50:49;26.40;83.30
11855;DHT22;5987;53.140;8.904;2022-08-19T12:53:56;26.30;84.50
11855;DHT22;5987;53.140;8.904;2022-08-19T12:57:15;26.40;83.20
11855;DHT22;5987;53.140;8.904;2022-08-19T13:00:20;26.20;83.40
11855;DHT22;5987;53.140;8.904;2022-08-19T13:03:25;26.20;83.50
11855;DHT22;5987;53.140;8.904;2022-08-19T13:06:32;26.30;82.90
11855;DHT22;5987;53.140;8.904;2022-08-19T13:09:36;26.40;83.20
11855;DHT22;5987;53.140;8.904;2022-08-19T13:12:39;26.30;82.90
11855;DHT22;5987;53.140;8.904;2022-08-19T13:15:44;26.30;82.70
11855;DHT22;5987;53.140;8.904;2022-08-19T13:18:48;26.50;81.40
11855;DHT22;5987;53.140;8.904;2022-08-19T13:21:55;26.40;80.00
11855;DHT22;5987;53.140;8.904;2022-08-19T13:25:01;26.40;80.30
11855;DHT22;5987;53.140;8.904;2022-08-19T13:28:05;26.50;79.80
11855;DHT22;5987;53.140;8.904;2022-08-19T13:31:15;26.40;79.50
11855;DHT22;5987;53.140;8.904;2022-08-19T13:34:37;26.20;76.50
11855;DHT22;5987;53.140;8.904;2022-08-19T13:37:42;26.20;75.50
11855;DHT22;5987;53.140;8.904;2022-08-19T13:40:48;26.40;75.80
11855;DHT22;5987;53.140;8.904;2022-08-19T13:43:53;26.40;71.80
11855;DHT22;5987;53.140;8.904;2022-08-19T13:47:01;26.20;68.70
11855;DHT22;5987;53.140;8.904;2022-08-19T13:50:10;26.00;66.60
11855;DHT22;5987;53.140;8.904;2022-08-19T13:53:16;26.20;66.90
11855;DHT22;5987;53.140;8.904;2022-08-19T13:56:20;26.30;65.60
11855;DHT22;5987;53.140;8.904;2022-08-19T13:59:27;26.30;65.00
11855;DHT22;5987;53.140;8.904;2022-08-19T14:02:31;26.30;65.30
11855;DHT22;5987;53.140;8.904;2022-08-19T14:05:37;26.40;65.50
11855;DHT22;5987;53.140;8.904;2022-08-19T14:08:42;26.50;64.80
11855;DHT22;5987;53.140;8.904;2022-08-19T14:11:47;26.60;65.00
11855;DHT22;5987;53.140;8.904;2022-08-19T14:14:52;26.70;65.00
11855;DHT22;5987;53.140;8.904;2022-08-19T14:17:56;26.80;66.10
11855;DHT22;5987;53.140;8.904;2022-08-19T14:21:00;26.80;64.70
11855;DHT22;5987;53.140;8.904;2022-08-19T14:24:06;27.00;65.90
11855;DHT22;5987;53.140;8.904;2022-08-19T14:27:10;27.00;67.10
11855;DHT22;5987;53.140;8.904;2022-08-19T14:30:17;27.10;66.80
11855;DHT22;5987;53.140;8.904;2022-08-19T14:33:23;27.20;67.20
11855;DHT22;5987;53.140;8.904;2022-08-19T14:36:31;27.30;67.90
11855;DHT22;5987;53.140;8.904;2022-08-19T14:39:41;27.10;68.00
11855;DHT22;5987;53.140;8.904;2022-08-19T14:42:46;26.90;67.70
11855;DHT22;5987;53.140;8.904;2022-08-19T14:45:51;26.90;68.00
11855;DHT22;5987;53.140;8.904;2022-08-19T14:48:56;27.00;67.50
11855;DHT22;5987;53.140;8.904;2022-08-19T14:52:01;27.00;68.50
11855;DHT22;5987;53.140;8.904;2022-08-19T14:55:08;27.00;69.60
11855;DHT22;5987;53.140;8.904;2022-08-19T14:58:13;27.10;68.70
11855;DHT22;5987;53.140;8.904;2022-08-19T15:01:31;27.20;68.40
11855;DHT22;5987;53.140;8.904;2022-08-19T15:04:35;27.20;69.40
11855;DHT22;5987;53.140;8.904;2022-08-19T15:07:38;27.10;68.70
11855;DHT22;5987;53.140;8.904;2022-08-19T15:10:44;26.90;69.40
11855;DHT22;5987;53.140;8.904;2022-08-19T15:13:50;26.90;70.70
11855;DHT22;5987;53.140;8.904;2022-08-19T15:16:54;26.90;71.20
11855;DHT22;5987;53.140;8.904;2022-08-19T15:19:58;27.00;71.60
11855;DHT22;5987;53.140;8.904;2022-08-19T15:23:02;27.10;72.20
11855;DHT22;5987;53.140;8.904;2022-08-19T15:26:07;27.20;70.30
11855;DHT22;5987;53.140;8.904;2022-08-19T15:29:17;27.10;70.40
11855;DHT22;5987;53.140;8.904;2022-08-19T15:32:20;26.90;70.60
11855;DHT22;5987;53.140;8.904;2022-08-19T15:35:25;26.90;70.50
11855;DHT22;5987;53.140;8.904;2022-08-19T15:38:29;26.90;70.60
11855;DHT22;5987;53.140;8.904;2022-08-19T15:41:41;26.90;72.10
11855;DHT22;5987;53.140;8.904;2022-08-19T15:44:46;26.80;72.90
11855;DHT22;5987;53.140;8.904;2022-08-19T15:47:51;26.90;73.80
11855;DHT22;5987;53.140;8.904;2022-08-19T15:50:55;27.00;72.70
11855;DHT22;5987;53.140;8.904;2022-08-19T15:53:59;27.10;72.40
11855;DHT22;5987;53.140;8.904;2022-08-19T15:57:05;27.10;72.70
11855;DHT22;5987;53.140;8.904;2022-08-19T16:00:26;27.00;72.20
11855;DHT22;5987;53.140;8.904;2022-08-19T16:03:55;26.90;71.90
11855;DHT22;5987;53.140;8.904;2022-08-19T16:07:17;26.80;71.40
11855;DHT22;5987;53.140;8.904;2022-08-19T16:10:24;26.80;71.60
11855;DHT22;5987;53.140;8.904;2022-08-19T16:13:30;26.80;71.00
11855;DHT22;5987;53.140;8.904;2022-08-19T16:16:35;26.80;71.30
11855;DHT22;5987;53.140;8.904;2022-08-19T16:19:40;26.70;70.80
11855;DHT22;5987;53.140;8.904;2022-08-19T16:22:44;26.60;71.30
11855;DHT22;5987;53.140;8.904;2022-08-19T16:25:48;26.50;71.70
11855;DHT22;5987;53.140;8.904;2022-08-19T16:28:53;26.60;70.90
11855;DHT22;5987;53.140;8.904;2022-08-19T16:31:58;26.60;70.70
11855;DHT22;5987;53.140;8.904;2022-08-19T16:35:04;26.50;69.80
11855;DHT22;5987;53.140;8.904;2022-08-19T16:38:08;26.50;69.80
11855;DHT22;5987;53.140;8.904;2022-08-19T16:41:12;26.50;70.10
11855;DHT22;5987;53.140;8.904;2022-08-19T16:44:18;26.40;70.50
11855;DHT22;5987;53.140;8.904;2022-08-19T16:47:22;26.40;70.20
11855;DHT22;5987;53.140;8.904;2022-08-19T16:50:25;26.20;70.20
11855;DHT22;5987;53.140;8.904;2022-08-19T16:53:49;26.20;70.50
11855;DHT22;5987;53.140;8.904;2022-08-19T16:56:54;26.20;69.70
11855;DHT22;5987;53.140;8.904;2022-08-19T16:59:59;26.10;69.60
11855;DHT22;5987;53.140;8.904;2022-08-19T17:03:08;26.10;70.30
11855;DHT22;5987;53.140;8.904;2022-08-19T17:06:18;25.90;70.30
11855;DHT22;5987;53.140;8.904;2022-08-19T17:09:25;26.00;70.50
11855;DHT22;5987;53.140;8.904;2022-08-19T17:12:33;25.80;69.70
11855;DHT22;5987;53.140;8.904;2022-08-19T17:15:40;25.80;70.40
11855;DHT22;5987;53.140;8.904;2022-08-19T17:18:44;25.70;69.80
11855;DHT22;5987;53.140;8.904;2022-08-19T17:21:53;25.70;69.70
11855;DHT22;5987;53.140;8.904;2022-08-19T17:24:58;25.70;70.50
11855;DHT22;5987;53.140;8.904;2022-08-19T17:28:05;25.50;70.10
11855;DHT22;5987;53.140;8.904;2022-08-19T17:31:11;25.50;70.10
11855;DHT22;5987;53.140;8.904;2022-08-19T17:34:16;25.40;69.30
11855;DHT22;5987;53.140;8.904;2022-08-19T17:37:20;25.30;69.60
11855;DHT22;5987;53.140;8.904;2022-08-19T17:40:25;25.10;70.30
11855;DHT22;5987;53.140;8.904;2022-08-19T17:43:31;25.10;70.70
11855;DHT22;5987;53.140;8.904;2022-08-19T17:46:45;25.10;71.00
11855;DHT22;5987;53.140;8.904;2022-08-19T17:49:50;25.20;71.90
11855;DHT22;5987;53.140;8.904;2022-08-19T17:52:54;25.10;72.50
11855;DHT22;5987;53.140;8.904;2022-08-19T17:55:58;25.00;72.10
11855;DHT22;5987;53.140;8.904;2022-08-19T17:59:02;24.90;72.50
11855;DHT22;5987;53.140;8.904;2022-08-19T18:02:11;24.90;72.90
11855;DHT22;5987;53.140;8.904;2022-08-19T18:05:16;24.80;73.40
11855;DHT22;5987;53.140;8.904;2022-08-19T18:08:34;24.70;73.70
11855;DHT22;5987;53.140;8.904;2022-08-19T18:11:40;24.60;74.20
11855;DHT22;5987;53.140;8.904;2022-08-19T18:14:45;24.50;74.70
11855;DHT22;5987;53.140;8.904;2022-08-19T18:17:51;24.40;75.30
11855;DHT22;5987;53.140;8.904;2022-08-19T18:20:55;24.30;75.80
11855;DHT22;5987;53.140;8.904;2022-08-19T18:23:58;24.20;76.30
11855;DHT22;5987;53.140;8.904;2022-08-19T18:27:03;24.10;77.00
11855;DHT22;5987;53.140;8.904;2022-08-19T18:30:08;24.00;77.20
11855;DHT22;5987;53.140;8.904;2022-08-19T18:33:14;24.00;77.40
11855;DHT22;5987;53.140;8.904;2022-08-19T18:36:19;23.90;77.70
11855;DHT22;5987;53.140;8.904;2022-08-19T18:39:43;23.80;78.10
11855;DHT22;5987;53.140;8.904;2022-08-19T18:43:05;23.70;78.70
11855;DHT22;5987;53.140;8.904;2022-08-19T18:46:26;23.70;79.30
11855;DHT22;5987;53.140;8.904;2022-08-19T18:50:00;23.70;79.50
11855;DHT22;5987;53.140;8.904;2022-08-19T18:53:12;23.60;80.80
11855;DHT22;5987;53.140;8.904;2022-08-19T18:56:19;23.50;82.00
11855;DHT22;5987;53.140;8.904;2022-08-19T18:59:26;23.30;82.80
11855;DHT22;5987;53.140;8.904;2022-08-19T19:02:35;23.20;84.20
11855;DHT22;5987;53.140;8.904;2022-08-19T19:05:42;23.10;84.80
11855;DHT22;5987;53.140;8.904;2022-08-19T19:08:46;22.90;85.40
11855;DHT22;5987;53.140;8.904;2022-08-19T19:11:53;22.90;85.50
11855;DHT22;5987;53.140;8.904;2022-08-19T19:14:59;22.80;86.30
11855;DHT22;5987;53.140;8.904;2022-08-19T19:18:06;22.70;86.80
11855;DHT22;5987;53.140;8.904;2022-08-19T19:21:12;22.60;87.20
11855;DHT22;5987;53.140;8.904;2022-08-19T19:24:17;22.60;88.70
11855;DHT22;5987;53.140;8.904;2022-08-19T19:27:24;22.60;89.10
11855;DHT22;5987;53.140;8.904;2022-08-19T19:30:28;22.50;90.10
11855;DHT22;5987;53.140;8.904;2022-08-19T19:33:32;22.30;90.40
11855;DHT22;5987;53.140;8.904;2022-08-19T19:36:37;22.20;90.60
11855;DHT22;5987;53.140;8.904;2022-08-19T19:39:41;22.00;90.60
11855;DHT22;5987;53.140;8.904;2022-08-19T19:42:48;22.00;90.70
11855;DHT22;5987;53.140;8.904;2022-08-19T19:45:53;21.90;91.10
11855;DHT22;5987;53.140;8.904;2022-08-19T19:48:56;21.90;91.40
11855;DHT22;5987;53.140;8.904;2022-08-19T19:52:03;21.80;91.70
11855;DHT22;5987;53.140;8.904;2022-08-19T19:55:15;21.70;92.10
11855;DHT22;5987;53.140;8.904;2022-08-19T19:58:20;21.70;92.20
11855;DHT22;5987;53.140;8.904;2022-08-19T20:01:30;21.60;92.50